createdAt,value
2018-11-10T00:01:42.589Z,88.94
2018-11-10T00:04:12.989Z,89.56
2018-11-10T00:06:43.014Z,89.75
2018-11-10T00:09:12.868Z,89.88
2018-11-10T00:11:43.182Z,89.47
2018-11-10T00:14:13.128Z,89.53
2018-11-10T00:16:44.140Z,89.30
2018-11-10T00:19:14.198Z,89.49
2018-11-10T00:21:44.072Z,89.06
2018-11-10T00:24:55.759Z,88.69
2018-11-10T00:27:26.426Z,88.76
2018-11-10T00:29:56.216Z,88.67
2018-11-10T00:32:26.120Z,88.42
2018-11-10T00:34:55.922Z,87.51
2018-11-10T00:37:26.482Z,87.86
2018-11-10T00:39:56.418Z,87.43
2018-11-10T00:42:26.258Z,88.23
2018-11-10T00:44:56.042Z,87.62
2018-11-10T00:47:25.814Z,87.67
2018-11-10T00:49:55.602Z,87.97
2018-11-10T00:52:25.378Z,88.09
2018-11-10T00:54:55.174Z,88.11
2018-11-10T00:57:24.933Z,87.80
2018-11-10T00:59:55.105Z,87.56
2018-11-10T01:02:25.106Z,88.21
2018-11-10T01:04:54.900Z,87.95
2018-11-10T01:07:24.652Z,87.62
2018-11-10T01:09:54.409Z,87.21
2018-11-10T01:12:24.157Z,87.44
2018-11-10T01:14:53.954Z,87.23
2018-11-10T01:17:23.826Z,87.13
2018-11-10T01:19:53.621Z,87.32
2018-11-10T01:22:23.399Z,88.07
2018-11-10T01:24:53.209Z,89.55
2018-11-10T01:27:23.022Z,90.88
2018-11-10T01:29:53.103Z,91.99
2018-11-10T01:32:22.925Z,91.90
2018-11-10T01:34:52.668Z,91.66
2018-11-10T01:37:22.427Z,91.67
2018-11-10T01:39:52.188Z,92.11
2018-11-10T01:42:21.995Z,92.35
2018-11-10T01:44:51.721Z,92.77
2018-11-10T01:47:21.485Z,92.67
2018-11-10T01:49:51.685Z,93.02
2018-11-10T01:52:21.623Z,94.19
2018-11-10T01:54:51.381Z,94.62
2018-11-10T01:57:21.137Z,95.38
2018-11-10T01:59:50.870Z,95.70
2018-11-10T02:02:20.668Z,96.21
2018-11-10T02:04:50.593Z,97.26
2018-11-10T02:07:20.405Z,97.03
2018-11-10T02:09:50.202Z,97.23
2018-11-10T02:12:20.043Z,97.14
2018-11-10T02:14:49.834Z,98.12
2018-11-10T02:17:19.763Z,98.24
2018-11-10T02:19:49.591Z,97.95
2018-11-10T02:22:19.733Z,98.25
2018-11-10T02:24:49.566Z,98.19
2018-11-10T02:27:23.615Z,98.12
2018-11-10T02:29:55.766Z,98.26
2018-11-10T02:32:25.505Z,97.66
2018-11-10T02:34:56.015Z,97.00
2018-11-10T02:37:25.905Z,97.12
2018-11-10T02:39:55.669Z,97.00
2018-11-10T02:42:25.612Z,96.84
2018-11-10T02:44:56.153Z,96.34
2018-11-10T02:47:26.001Z,95.96
2018-11-10T02:49:55.807Z,95.75
2018-11-10T02:52:25.987Z,94.74
2018-11-10T02:54:56.098Z,93.75
2018-11-10T02:57:26.711Z,93.21
2018-11-10T02:59:56.555Z,93.16
2018-11-10T03:02:26.591Z,92.87
2018-11-10T03:04:56.649Z,93.12
2018-11-10T03:07:26.505Z,92.37
2018-11-10T03:09:56.353Z,92.41
2018-11-10T03:12:26.144Z,93.60
2018-11-10T03:14:55.967Z,93.42
2018-11-10T03:17:25.919Z,93.03
2018-11-10T03:19:55.734Z,93.17
2018-11-10T03:22:25.567Z,93.75
2018-11-10T03:24:55.331Z,93.49
2018-11-10T03:27:25.213Z,93.85
2018-11-10T03:29:55.143Z,93.74
2018-11-10T03:32:25.111Z,93.32
2018-11-10T03:34:54.993Z,93.28
2018-11-10T03:37:24.764Z,92.99
2018-11-10T03:39:54.524Z,92.10
2018-11-10T03:42:24.515Z,92.29
2018-11-10T03:44:54.291Z,91.85
2018-11-10T03:47:24.119Z,92.62
2018-11-10T03:49:53.903Z,92.84
2018-11-10T03:52:23.681Z,92.87
2018-11-10T03:54:53.744Z,92.28
2018-11-10T03:57:23.541Z,92.02
2018-11-10T03:59:53.300Z,91.04
2018-11-10T04:02:23.095Z,91.46
2018-11-10T04:04:52.903Z,92.16
2018-11-10T04:07:22.928Z,91.90
2018-11-10T04:09:52.765Z,92.58
2018-11-10T04:12:22.578Z,92.31
2018-11-10T04:14:52.323Z,92.53
2018-11-10T04:17:22.170Z,92.44
2018-11-10T04:19:52.032Z,92.38
2018-11-10T04:22:37.956Z,92.69
2018-11-10T04:25:10.276Z,92.88
2018-11-10T04:27:40.163Z,92.22
2018-11-10T04:30:11.068Z,92.14
2018-11-10T04:32:40.912Z,91.47
2018-11-10T04:35:10.733Z,90.74
2018-11-10T04:37:40.498Z,90.86
2018-11-10T04:40:11.390Z,90.85
2018-11-10T04:42:41.706Z,91.71
2018-11-10T04:45:12.541Z,91.67
2018-11-10T04:47:42.368Z,91.96
2018-11-10T04:50:12.856Z,91.98
2018-11-10T04:52:43.053Z,92.68
2018-11-10T04:55:13.567Z,92.80
2018-11-10T04:57:43.384Z,92.87
2018-11-10T05:00:15.048Z,93.35
2018-11-10T05:02:45.903Z,93.23
2018-11-10T05:05:15.772Z,93.27
2018-11-10T05:07:45.602Z,92.96
2018-11-10T05:10:15.384Z,92.90
2018-11-10T05:12:45.210Z,92.60
2018-11-10T05:15:15.120Z,92.31
2018-11-10T05:17:44.970Z,92.34
2018-11-10T05:20:14.806Z,92.19
2018-11-10T05:22:44.668Z,92.06
2018-11-10T05:25:15.214Z,91.65
2018-11-10T05:27:44.987Z,91.27
2018-11-10T05:30:14.997Z,91.07
2018-11-10T05:32:44.952Z,91.23
2018-11-10T05:35:14.674Z,90.78
2018-11-10T05:37:44.676Z,90.58
2018-11-10T05:40:14.426Z,90.21
2018-11-10T05:42:44.264Z,91.06
2018-11-10T05:45:14.086Z,90.33
2018-11-10T05:47:43.902Z,90.38
2018-11-10T05:50:13.726Z,90.50
2018-11-10T05:52:43.538Z,90.07
2018-11-10T05:55:13.931Z,90.47
2018-11-10T05:57:43.722Z,90.78
2018-11-10T06:00:14.135Z,91.23
2018-11-10T06:02:43.950Z,90.47
2018-11-10T06:05:13.941Z,90.41
2018-11-10T06:07:44.495Z,90.46
2018-11-10T06:10:14.504Z,90.62
2018-11-10T06:12:44.640Z,90.88
2018-11-10T06:15:14.615Z,90.89
2018-11-10T06:17:44.390Z,90.82
2018-11-10T06:20:14.680Z,90.29
2018-11-10T06:22:44.565Z,90.09
2018-11-10T06:25:14.475Z,89.60
2018-11-10T06:27:44.317Z,91.00
2018-11-10T06:30:14.112Z,90.97
2018-11-10T06:32:43.961Z,91.29
2018-11-10T06:35:13.917Z,91.90
2018-11-10T06:44:55.972Z,93.10
2018-11-10T06:47:26.049Z,93.20
2018-11-10T06:49:55.948Z,92.96
2018-11-10T06:52:25.735Z,92.72
2018-11-10T06:54:55.571Z,92.41
2018-11-10T06:57:56.332Z,93.59
2018-11-10T07:00:26.205Z,95.46
2018-11-10T07:02:56.179Z,95.58
2018-11-10T07:05:26.817Z,96.09
2018-11-10T07:07:56.612Z,95.52
2018-11-10T07:10:26.423Z,96.29
2018-11-10T07:12:56.211Z,95.91
2018-11-10T07:15:26.014Z,95.79
2018-11-10T07:17:55.858Z,94.86
2018-11-10T07:20:25.833Z,94.06
2018-11-10T07:22:55.631Z,93.08
2018-11-10T07:25:25.425Z,93.08
2018-11-10T07:27:55.230Z,92.05
2018-11-10T07:30:25.044Z,92.25
2018-11-10T07:32:55.020Z,91.54
2018-11-10T07:35:24.824Z,91.45
2018-11-10T07:37:54.577Z,91.59
2018-11-10T07:40:24.539Z,91.47
2018-11-10T07:42:54.382Z,90.77
2018-11-10T07:45:24.329Z,90.53
2018-11-10T07:47:54.139Z,90.71
2018-11-10T07:50:23.897Z,90.55
2018-11-10T07:53:55.001Z,90.78
2018-11-10T07:56:24.819Z,91.54
2018-11-10T07:58:54.602Z,91.61
2018-11-10T08:01:24.435Z,91.62
2018-11-10T08:03:54.227Z,91.13
2018-11-10T08:06:24.000Z,90.87
2018-11-10T08:08:53.773Z,91.39
2018-11-10T08:11:23.548Z,91.21
2018-11-10T08:15:22.961Z,90.37
2018-11-10T08:17:52.767Z,91.31
2018-11-10T08:20:22.558Z,90.88
2018-11-10T08:22:52.383Z,91.63
2018-11-10T08:25:22.247Z,91.98
2018-11-10T08:27:52.281Z,92.17
2018-11-10T08:30:22.076Z,92.28
2018-11-10T08:32:51.889Z,92.29
2018-11-10T08:35:21.745Z,92.23
2018-11-10T08:37:51.553Z,91.96
2018-11-10T08:40:22.149Z,91.87
2018-11-10T08:42:51.958Z,91.73
2018-11-10T08:45:21.732Z,90.14
2018-11-10T08:47:51.590Z,89.60
2018-11-10T08:50:21.480Z,88.76
2018-11-10T08:52:51.388Z,89.68
2018-11-10T08:55:21.178Z,88.33
2018-11-10T08:57:50.999Z,88.43
2018-11-10T09:00:20.808Z,87.96
2018-11-10T09:02:50.805Z,87.87
2018-11-10T09:05:20.596Z,86.95
2018-11-10T09:07:50.501Z,86.56
2018-11-10T09:10:20.380Z,87.05
2018-11-10T09:12:50.284Z,85.99
2018-11-10T09:15:20.090Z,85.50
2018-11-10T09:17:50.209Z,85.21
2018-11-10T09:20:20.198Z,85.39
2018-11-10T09:22:50.075Z,85.33
2018-11-10T09:25:20.125Z,86.14
2018-11-10T09:27:50.014Z,85.85
2018-11-10T09:30:21.337Z,86.44
2018-11-10T09:32:51.208Z,85.99
2018-11-10T09:35:20.989Z,85.96
2018-11-10T09:37:50.917Z,86.52
2018-11-10T09:40:20.718Z,86.31
2018-11-10T09:42:50.552Z,87.43
2018-11-10T09:45:20.598Z,87.87
2018-11-10T09:47:50.418Z,87.61
2018-11-10T09:50:22.020Z,87.71
2018-11-10T09:52:52.052Z,87.80
2018-11-10T09:55:22.008Z,88.35
2018-11-10T09:57:51.832Z,88.24
2018-11-10T10:00:22.836Z,88.55
2018-11-10T10:02:52.769Z,88.77
2018-11-10T10:05:22.635Z,88.59
2018-11-10T10:07:52.558Z,89.17
2018-11-10T10:10:22.420Z,88.64
2018-11-10T10:12:52.526Z,88.05
2018-11-10T10:15:22.330Z,87.84
2018-11-10T10:17:52.674Z,88.07
2018-11-10T10:20:22.570Z,87.53
2018-11-10T10:22:52.655Z,87.09
2018-11-10T10:25:22.982Z,87.16
2018-11-10T10:27:52.912Z,86.83
2018-11-10T10:30:24.266Z,86.29
2018-11-10T10:32:54.292Z,85.96
2018-11-10T10:35:24.305Z,85.40
2018-11-10T10:37:54.734Z,84.51
2018-11-10T10:40:24.568Z,85.18
2018-11-10T10:42:55.183Z,84.75
2018-11-10T10:45:25.357Z,85.29
2018-11-10T10:47:55.140Z,85.15
2018-11-10T10:50:25.233Z,85.32
2018-11-10T10:52:55.280Z,84.32
2018-11-10T10:55:25.121Z,83.80
2018-11-10T10:57:54.943Z,85.03
2018-11-10T11:00:29.965Z,84.29
2018-11-10T11:03:05.051Z,84.50
2018-11-10T11:05:39.958Z,83.71
2018-11-10T11:08:09.805Z,83.19
2018-11-10T11:10:39.621Z,82.91
2018-11-10T11:13:09.477Z,82.47
2018-11-10T11:15:39.411Z,81.85
2018-11-10T11:18:09.534Z,81.48
2018-11-10T11:20:39.403Z,81.45
2018-11-10T11:23:09.428Z,79.92
2018-11-10T11:25:39.467Z,79.24
2018-11-10T11:28:09.415Z,77.59
2018-11-10T11:30:39.407Z,77.00
2018-11-10T11:33:09.369Z,77.22
2018-11-10T11:35:39.431Z,76.78
2018-11-10T11:38:09.684Z,75.81
2018-11-10T11:40:39.649Z,75.88
2018-11-10T11:43:09.541Z,74.71
2018-11-10T11:45:39.501Z,73.94
2018-11-10T11:48:09.389Z,74.59
2018-11-10T11:50:39.544Z,73.83
2018-11-10T11:53:09.425Z,73.69
2018-11-10T11:55:39.416Z,73.28
2018-11-10T11:58:09.382Z,73.64
2018-11-10T12:00:39.350Z,73.57
2018-11-10T12:03:09.225Z,73.49
2018-11-10T12:05:39.067Z,73.55
2018-11-10T12:08:08.952Z,73.52
2018-11-10T12:10:38.880Z,73.62
2018-11-10T12:13:08.841Z,71.97
2018-11-10T12:15:38.695Z,72.51
2018-11-10T12:18:08.611Z,72.70
2018-11-10T12:20:38.478Z,72.56
2018-11-10T12:23:08.415Z,73.07
2018-11-10T12:25:38.283Z,72.83
2018-11-10T12:28:08.191Z,73.96
2018-11-10T12:30:38.054Z,75.68
2018-11-10T12:33:07.965Z,75.65
2018-11-10T12:35:37.905Z,75.79
2018-11-10T12:38:07.873Z,76.30
2018-11-10T12:40:37.747Z,75.78
2018-11-10T12:43:07.633Z,76.49
2018-11-10T12:45:37.526Z,77.98
2018-11-10T12:48:07.573Z,80.02
2018-11-10T12:50:37.477Z,81.83
2018-11-10T12:53:07.338Z,84.20
2018-11-10T12:55:37.201Z,84.94
2018-11-10T12:58:07.416Z,85.96
2018-11-10T13:00:37.715Z,86.43
2018-11-10T13:03:07.737Z,87.41
2018-11-10T13:05:37.613Z,88.23
2018-11-10T13:08:07.604Z,88.04
2018-11-10T13:10:37.673Z,87.74
2018-11-10T13:13:07.697Z,88.05
2018-11-10T13:15:38.221Z,88.23
2018-11-10T13:18:08.095Z,88.54
2018-11-10T13:20:37.917Z,88.82
2018-11-10T13:23:07.821Z,88.88
2018-11-10T13:25:37.663Z,87.92
2018-11-10T13:28:07.497Z,87.90
2018-11-10T13:30:37.320Z,87.73
2018-11-10T13:33:07.939Z,87.71
2018-11-10T13:35:37.708Z,88.31
2018-11-10T13:38:07.538Z,88.03
2018-11-10T13:40:37.460Z,88.00
2018-11-10T13:43:08.093Z,88.01
2018-11-10T13:45:38.381Z,87.92
2018-11-10T13:48:08.181Z,87.38
2018-11-10T13:50:38.107Z,87.46
2018-11-10T13:53:56.653Z,87.50
2018-11-10T13:56:26.511Z,87.61
2018-11-10T13:58:56.355Z,87.86
2018-11-10T14:01:26.195Z,87.50
2018-11-10T14:03:56.107Z,87.46
2018-11-10T14:06:25.942Z,87.14
2018-11-10T14:08:55.771Z,87.59
2018-11-10T14:11:25.737Z,87.43
2018-11-10T14:13:55.549Z,87.75
2018-11-10T14:16:25.321Z,87.79
2018-11-10T14:18:55.143Z,87.52
2018-11-10T14:21:24.974Z,87.37
2018-11-10T14:23:54.810Z,86.70
2018-11-10T14:27:54.168Z,86.89
2018-11-10T14:30:24.174Z,87.12
2018-11-10T14:32:54.018Z,86.78
2018-11-10T14:35:23.820Z,87.08
2018-11-10T14:37:56.681Z,86.83
2018-11-10T14:40:26.499Z,86.73
2018-11-10T14:42:56.298Z,87.22
2018-11-10T14:45:26.122Z,86.68
2018-11-10T14:47:56.118Z,86.60
2018-11-10T14:50:25.964Z,86.85
2018-11-10T14:52:55.992Z,86.91
2018-11-10T14:55:25.831Z,87.31
2018-11-10T14:57:55.672Z,87.71
2018-11-10T15:00:26.732Z,87.16
2018-11-10T15:02:56.530Z,87.20
2018-11-10T15:05:26.347Z,87.32
2018-11-10T15:07:56.336Z,87.39
2018-11-10T15:10:26.294Z,87.39
2018-11-10T15:13:13.010Z,87.86
2018-11-10T15:15:42.790Z,88.01
2018-11-10T15:18:12.847Z,88.05
2018-11-10T15:20:42.718Z,87.72
2018-11-10T15:23:12.560Z,87.58
2018-11-10T15:25:42.415Z,87.45
2018-11-10T15:28:12.273Z,87.29
2018-11-10T15:30:42.119Z,87.39
2018-11-10T15:33:11.976Z,86.68
2018-11-10T15:35:41.980Z,86.73
2018-11-10T15:38:12.092Z,86.36
2018-11-10T15:40:41.930Z,86.35
2018-11-10T15:43:11.758Z,86.55
2018-11-10T15:45:41.601Z,86.01
2018-11-10T15:48:11.502Z,86.04
2018-11-10T15:50:41.344Z,86.66
2018-11-10T15:53:11.533Z,87.71
2018-11-10T15:55:41.315Z,88.00
2018-11-10T15:58:11.224Z,88.02
2018-11-10T16:00:41.022Z,88.27
2018-11-10T16:03:10.868Z,88.90
2018-11-10T16:05:40.616Z,89.06
2018-11-10T16:08:10.454Z,88.95
2018-11-10T16:10:40.364Z,89.52
2018-11-10T16:13:10.351Z,89.46
2018-11-10T16:15:40.207Z,89.21
2018-11-10T16:18:10.043Z,89.15
2018-11-10T16:20:39.938Z,88.99
2018-11-10T16:23:09.894Z,89.47
2018-11-10T16:29:15.888Z,89.14
2018-11-10T16:31:45.686Z,89.34
2018-11-10T16:34:15.521Z,89.56
2018-11-10T16:36:45.378Z,88.96
2018-11-10T16:39:15.171Z,88.96
2018-11-10T16:41:44.998Z,88.90
2018-11-10T16:44:14.814Z,88.19
2018-11-10T16:46:45.008Z,88.57
2018-11-10T16:49:15.009Z,88.75
2018-11-10T16:51:44.893Z,88.50
2018-11-10T16:54:14.784Z,87.84
2018-11-10T16:56:44.772Z,87.71
2018-11-10T16:59:14.703Z,87.71
2018-11-10T17:01:45.442Z,88.34
2018-11-10T17:04:15.227Z,87.68
2018-11-10T17:06:45.295Z,88.12
2018-11-10T17:09:15.233Z,88.99
2018-11-10T17:11:45.271Z,88.76
2018-11-10T17:14:15.420Z,89.33
2018-11-10T17:16:45.479Z,88.87
2018-11-10T17:19:15.608Z,89.53
2018-11-10T17:21:45.979Z,89.29
2018-11-10T17:24:16.004Z,90.35
2018-11-10T17:30:22.367Z,91.46
2018-11-10T17:32:52.207Z,91.84
2018-11-10T17:35:23.792Z,92.35
2018-11-10T17:37:53.713Z,92.32
2018-11-10T17:40:23.912Z,92.46
2018-11-10T17:46:30.189Z,92.30
2018-11-10T17:49:00.085Z,92.56
2018-11-10T17:51:29.951Z,92.62
2018-11-10T17:53:59.797Z,92.60
2018-11-10T17:56:29.745Z,92.74
2018-11-10T17:58:59.723Z,93.02
2018-11-10T18:01:29.689Z,92.88
2018-11-10T18:03:59.643Z,93.34
2018-11-10T18:06:29.551Z,93.75
2018-11-10T18:08:59.526Z,93.95
2018-11-10T18:11:29.559Z,94.51
2018-11-10T18:13:59.457Z,94.76
2018-11-10T18:16:29.367Z,95.08
2018-11-10T18:18:59.231Z,95.46
2018-11-10T18:21:29.331Z,95.84
2018-11-10T18:23:59.599Z,96.45
2018-11-10T18:26:29.481Z,96.72
2018-11-10T18:28:59.353Z,97.68
2018-11-10T18:31:29.190Z,98.02
2018-11-10T18:33:59.095Z,98.20
2018-11-10T18:36:29.061Z,98.43
2018-11-10T18:38:58.935Z,98.68
2018-11-10T18:41:28.785Z,99.06
2018-11-10T18:43:58.705Z,98.99
2018-11-10T18:46:28.620Z,99.01
2018-11-10T18:48:58.757Z,99.08
2018-11-10T18:51:28.667Z,99.35
2018-11-10T18:53:58.496Z,99.42
2018-11-10T18:56:28.408Z,99.33
2018-11-10T18:58:58.365Z,99.10
2018-11-10T19:01:28.337Z,98.11
2018-11-10T19:03:58.207Z,96.93
2018-11-10T19:06:28.184Z,96.26
2018-11-10T19:08:58.112Z,96.54
2018-11-10T19:11:28.004Z,96.58
2018-11-10T19:13:57.938Z,96.16
2018-11-10T19:16:27.769Z,94.36
2018-11-10T19:18:57.623Z,94.16
2018-11-10T19:21:27.436Z,94.90
2018-11-10T19:23:57.308Z,93.44
2018-11-10T19:26:27.143Z,92.79
2018-11-10T19:28:57.077Z,93.05
2018-11-10T19:31:26.959Z,92.28
2018-11-10T19:33:56.976Z,92.20
2018-11-10T19:36:26.876Z,92.39
2018-11-10T19:38:56.806Z,93.14
2018-11-10T19:41:26.716Z,93.25
2018-11-10T19:43:56.585Z,93.05
2018-11-10T19:46:26.486Z,93.55
2018-11-10T19:48:56.336Z,93.97
2018-11-10T19:51:26.390Z,93.91
2018-11-10T19:53:56.257Z,94.49
2018-11-10T19:56:26.160Z,94.15
2018-11-10T19:58:56.038Z,93.48
2018-11-10T20:01:25.921Z,93.53
2018-11-10T20:03:55.872Z,93.85
2018-11-10T20:06:25.781Z,94.32
2018-11-10T20:08:55.623Z,95.35
2018-11-10T20:11:25.493Z,95.80
2018-11-10T20:13:55.885Z,96.27
2018-11-10T20:16:25.980Z,96.31
2018-11-10T20:18:55.880Z,97.48
2018-11-10T20:21:25.708Z,98.48
2018-11-10T20:23:55.635Z,98.74
2018-11-10T20:26:25.489Z,99.13
2018-11-10T20:28:55.475Z,98.24
2018-11-10T20:31:25.377Z,98.57
2018-11-10T20:33:55.524Z,99.12
2018-11-10T20:36:25.406Z,99.01
2018-11-10T20:38:55.424Z,98.96
2018-11-10T20:41:25.632Z,98.80
2018-11-10T20:43:55.533Z,98.60
2018-11-10T20:46:25.398Z,98.45
2018-11-10T20:48:55.339Z,98.54
2018-11-10T20:51:25.210Z,98.27
2018-11-10T20:57:30.858Z,96.17
2018-11-10T21:00:00.935Z,96.57
2018-11-10T21:02:31.017Z,96.26
2018-11-10T21:05:00.967Z,96.12
2018-11-10T21:07:30.894Z,95.42
2018-11-10T21:10:00.882Z,95.05
2018-11-10T21:12:30.800Z,95.29
2018-11-10T21:15:00.901Z,95.35
2018-11-10T21:17:30.771Z,95.62
2018-11-10T21:20:00.692Z,96.02
2018-11-10T21:22:30.871Z,96.08
2018-11-10T21:25:00.767Z,94.71
2018-11-10T21:27:30.643Z,93.92
2018-11-10T21:30:00.590Z,94.27
2018-11-10T21:32:30.599Z,94.08
2018-11-10T21:35:00.554Z,94.49
2018-11-10T21:37:30.613Z,94.49
2018-11-10T21:40:00.654Z,94.79
2018-11-10T21:42:31.130Z,95.25
2018-11-10T21:45:01.050Z,95.08
2018-11-10T21:47:31.108Z,95.09
2018-11-10T21:50:01.042Z,95.11
2018-11-10T21:52:30.921Z,94.05
2018-11-10T21:55:00.826Z,93.30
2018-11-10T21:57:30.733Z,92.31
2018-11-10T22:00:00.825Z,92.33
2018-11-10T22:02:30.785Z,92.84
2018-11-10T22:05:00.819Z,93.54
2018-11-10T22:07:30.680Z,93.23
2018-11-10T22:10:00.641Z,93.73
2018-11-10T22:12:31.211Z,93.75
2018-11-10T22:15:01.127Z,93.74
2018-11-10T22:17:31.038Z,92.97
2018-11-10T22:20:00.932Z,93.27
2018-11-10T22:22:30.941Z,93.58
2018-11-10T22:25:01.080Z,93.43
2018-11-10T22:27:30.967Z,93.58
2018-11-10T22:30:00.895Z,93.48
2018-11-10T22:32:30.837Z,93.64
2018-11-10T22:35:00.725Z,93.77
2018-11-10T22:37:30.947Z,91.34
2018-11-10T22:40:00.968Z,91.83
2018-11-10T22:42:31.780Z,91.99
2018-11-10T22:45:02.101Z,92.57
2018-11-10T22:47:32.188Z,92.57
2018-11-10T22:50:02.135Z,92.96
2018-11-10T22:52:32.833Z,92.86
2018-11-10T22:55:02.709Z,92.90
2018-11-10T22:57:32.683Z,92.78
2018-11-10T23:00:55.753Z,93.12
2018-11-10T23:03:26.306Z,93.51
2018-11-10T23:05:56.303Z,94.01
2018-11-10T23:08:26.244Z,93.71
2018-11-10T23:10:56.385Z,93.70
2018-11-10T23:13:26.847Z,93.21
2018-11-10T23:15:58.727Z,93.88
2018-11-10T23:18:28.909Z,93.70
2018-11-10T23:20:58.871Z,93.80
2018-11-10T23:23:28.890Z,93.38
2018-11-10T23:25:58.683Z,93.32
2018-11-10T23:28:28.591Z,92.68
2018-11-10T23:30:58.665Z,92.66
2018-11-10T23:33:28.690Z,92.70
2018-11-10T23:35:58.621Z,92.62
2018-11-10T23:38:28.549Z,92.57
2018-11-10T23:44:33.881Z,93.02
2018-11-10T23:47:03.747Z,92.87
2018-11-10T23:49:33.703Z,92.35
2018-11-10T23:52:03.605Z,92.96
2018-11-10T23:54:33.619Z,93.30
2018-11-10T23:57:03.763Z,94.23
2018-11-10T23:59:33.917Z,94.64
